sensor_id;sensor_type;location;lat;lon;timestamp;P1;durP1;ratioP1;P2;durP2;ratioP2
45564;SDS011;31280;40.408;17.282;2022-12-07T00:01:24;21.08;;;4.45;;
45564;SDS011;31280;40.408;17.282;2022-12-07T00:03:52;17.08;;;4.25;;
45564;SDS011;31280;40.408;17.282;2022-12-07T00:06:20;15.27;;;3.22;;
45564;SDS011;31280;40.408;17.282;2022-12-07T00:08:46;20.23;;;3.88;;
45564;SDS011;31280;40.408;17.282;2022-12-07T00:11:19;18.35;;;4.30;;
45564;SDS011;31280;40.408;17.282;2022-12-07T00:13:47;14.13;;;3.25;;
45564;SDS011;31280;40.408;17.282;2022-12-07T00:16:16;20.73;;;4.32;;
45564;SDS011;31280;40.408;17.282;2022-12-07T00:18:44;24.90;;;4.13;;
45564;SDS011;31280;40.408;17.282;2022-12-07T00:21:14;18.98;;;4.47;;
45564;SDS011;31280;40.408;17.282;2022-12-07T00:23:42;16.10;;;3.42;;
45564;SDS011;31280;40.408;17.282;2022-12-07T00:26:10;15.15;;;4.32;;
45564;SDS011;31280;40.408;17.282;2022-12-07T00:28:38;13.07;;;3.30;;
45564;SDS011;31280;40.408;17.282;2022-12-07T00:31:05;18.23;;;4.82;;
45564;SDS011;31280;40.408;17.282;2022-12-07T00:33:36;21.77;;;4.97;;
45564;SDS011;31280;40.408;17.282;2022-12-07T00:36:05;19.13;;;4.32;;
45564;SDS011;31280;40.408;17.282;2022-12-07T00:38:33;11.27;;;3.47;;
45564;SDS011;31280;40.408;17.282;2022-12-07T00:41:02;20.02;;;3.58;;
45564;SDS011;31280;40.408;17.282;2022-12-07T00:43:30;20.00;;;3.50;;
45564;SDS011;31280;40.408;17.282;2022-12-07T00:45:56;19.27;;;4.10;;
45564;SDS011;31280;40.408;17.282;2022-12-07T00:48:22;19.17;;;3.60;;
45564;SDS011;31280;40.408;17.282;2022-12-07T00:50:48;22.80;;;3.97;;
45564;SDS011;31280;40.408;17.282;2022-12-07T00:53:15;21.75;;;4.05;;
45564;SDS011;31280;40.408;17.282;2022-12-07T00:55:42;15.68;;;4.13;;
45564;SDS011;31280;40.408;17.282;2022-12-07T00:58:08;19.40;;;3.92;;
45564;SDS011;31280;40.408;17.282;2022-12-07T01:00:38;19.05;;;4.78;;
45564;SDS011;31280;40.408;17.282;2022-12-07T01:03:05;28.90;;;4.35;;
45564;SDS011;31280;40.408;17.282;2022-12-07T01:05:31;18.55;;;4.05;;
45564;SDS011;31280;40.408;17.282;2022-12-07T01:07:57;21.13;;;4.32;;
45564;SDS011;31280;40.408;17.282;2022-12-07T01:10:23;18.02;;;4.07;;
45564;SDS011;31280;40.408;17.282;2022-12-07T01:12:49;24.98;;;4.38;;
45564;SDS011;31280;40.408;17.282;2022-12-07T01:15:14;19.38;;;4.07;;
45564;SDS011;31280;40.408;17.282;2022-12-07T01:17:40;20.25;;;3.60;;
45564;SDS011;31280;40.408;17.282;2022-12-07T01:20:06;15.32;;;3.67;;
45564;SDS011;31280;40.408;17.282;2022-12-07T01:22:39;13.23;;;3.35;;
45564;SDS011;31280;40.408;17.282;2022-12-07T01:25:06;13.30;;;4.07;;
45564;SDS011;31280;40.408;17.282;2022-12-07T01:27:33;26.25;;;4.22;;
45564;SDS011;31280;40.408;17.282;2022-12-07T01:29:59;11.43;;;4.05;;
45564;SDS011;31280;40.408;17.282;2022-12-07T01:32:26;21.45;;;3.80;;
45564;SDS011;31280;40.408;17.282;2022-12-07T01:34:52;10.70;;;3.30;;
45564;SDS011;31280;40.408;17.282;2022-12-07T01:37:18;15.95;;;4.28;;
45564;SDS011;31280;40.408;17.282;2022-12-07T01:39:44;14.73;;;3.20;;
45564;SDS011;31280;40.408;17.282;2022-12-07T01:42:10;17.52;;;4.03;;
45564;SDS011;31280;40.408;17.282;2022-12-07T01:47:40;13.38;;;4.03;;
45564;SDS011;31280;40.408;17.282;2022-12-07T01:50:08;10.98;;;3.83;;
45564;SDS011;31280;40.408;17.282;2022-12-07T01:52:35;19.55;;;3.22;;
45564;SDS011;31280;40.408;17.282;2022-12-07T01:55:06;13.77;;;3.53;;
45564;SDS011;31280;40.408;17.282;2022-12-07T01:57:36;19.02;;;4.10;;
45564;SDS011;31280;40.408;17.282;2022-12-07T02:00:05;16.77;;;4.00;;
45564;SDS011;31280;40.408;17.282;2022-12-07T02:02:33;19.35;;;4.88;;
45564;SDS011;31280;40.408;17.282;2022-12-07T02:05:02;15.13;;;3.42;;
45564;SDS011;31280;40.408;17.282;2022-12-07T02:07:30;12.07;;;4.25;;
45564;SDS011;31280;40.408;17.282;2022-12-07T02:10:11;18.20;;;4.13;;
45564;SDS011;31280;40.408;17.282;2022-12-07T02:12:43;15.18;;;3.42;;
45564;SDS011;31280;40.408;17.282;2022-12-07T02:15:12;13.60;;;3.30;;
45564;SDS011;31280;40.408;17.282;2022-12-07T02:17:50;17.70;;;3.75;;
45564;SDS011;31280;40.408;17.282;2022-12-07T02:25:53;20.15;;;3.60;;
45564;SDS011;31280;40.408;17.282;2022-12-07T02:30:57;15.48;;;3.47;;
45564;SDS011;31280;40.408;17.282;2022-12-07T02:33:51;16.25;;;3.47;;
45564;SDS011;31280;40.408;17.282;2022-12-07T02:36:25;22.33;;;4.32;;
45564;SDS011;31280;40.408;17.282;2022-12-07T02:38:59;19.42;;;3.30;;
45564;SDS011;31280;40.408;17.282;2022-12-07T02:41:27;9.63;;;3.08;;
45564;SDS011;31280;40.408;17.282;2022-12-07T02:43:59;13.02;;;2.95;;
45564;SDS011;31280;40.408;17.282;2022-12-07T02:46:29;17.20;;;3.92;;
45564;SDS011;31280;40.408;17.282;2022-12-07T02:48:59;13.20;;;3.10;;
45564;SDS011;31280;40.408;17.282;2022-12-07T02:51:25;14.88;;;3.30;;
45564;SDS011;31280;40.408;17.282;2022-12-07T02:53:56;14.40;;;3.70;;
45564;SDS011;31280;40.408;17.282;2022-12-07T03:01:35;18.38;;;4.20;;
45564;SDS011;31280;40.408;17.282;2022-12-07T03:04:31;21.05;;;4.07;;
45564;SDS011;31280;40.408;17.282;2022-12-07T03:07:32;9.95;;;3.58;;
45564;SDS011;31280;40.408;17.282;2022-12-07T03:10:10;14.68;;;3.92;;
45564;SDS011;31280;40.408;17.282;2022-12-07T03:13:08;18.75;;;4.43;;
45564;SDS011;31280;40.408;17.282;2022-12-07T03:18:14;16.05;;;3.35;;
45564;SDS011;31280;40.408;17.282;2022-12-07T03:20:43;14.07;;;3.78;;
45564;SDS011;31280;40.408;17.282;2022-12-07T03:23:12;14.68;;;3.78;;
45564;SDS011;31280;40.408;17.282;2022-12-07T03:25:40;14.25;;;3.80;;
45564;SDS011;31280;40.408;17.282;2022-12-07T03:28:13;19.03;;;3.13;;
45564;SDS011;31280;40.408;17.282;2022-12-07T03:30:51;14.82;;;2.95;;
45564;SDS011;31280;40.408;17.282;2022-12-07T03:36:34;22.35;;;4.40;;
45564;SDS011;31280;40.408;17.282;2022-12-07T03:39:14;18.33;;;3.83;;
45564;SDS011;31280;40.408;17.282;2022-12-07T03:41:41;18.42;;;2.85;;
45564;SDS011;31280;40.408;17.282;2022-12-07T03:44:07;16.70;;;3.53;;
45564;SDS011;31280;40.408;17.282;2022-12-07T03:46:50;9.30;;;2.97;;
45564;SDS011;31280;40.408;17.282;2022-12-07T03:49:22;13.82;;;3.20;;
45564;SDS011;31280;40.408;17.282;2022-12-07T03:57:27;15.05;;;3.45;;
45564;SDS011;31280;40.408;17.282;2022-12-07T03:59:55;14.27;;;3.67;;
45564;SDS011;31280;40.408;17.282;2022-12-07T04:02:22;13.52;;;3.40;;
45564;SDS011;31280;40.408;17.282;2022-12-07T04:04:50;11.15;;;3.15;;
45564;SDS011;31280;40.408;17.282;2022-12-07T04:07:15;14.18;;;3.13;;
45564;SDS011;31280;40.408;17.282;2022-12-07T04:09:41;19.73;;;3.63;;
45564;SDS011;31280;40.408;17.282;2022-12-07T04:12:07;18.30;;;3.63;;
45564;SDS011;31280;40.408;17.282;2022-12-07T04:14:33;16.52;;;4.32;;
45564;SDS011;31280;40.408;17.282;2022-12-07T04:16:59;11.05;;;3.00;;
45564;SDS011;31280;40.408;17.282;2022-12-07T04:19:26;17.75;;;2.83;;
45564;SDS011;31280;40.408;17.282;2022-12-07T04:21:53;14.20;;;5.00;;
45564;SDS011;31280;40.408;17.282;2022-12-07T04:24:20;11.75;;;3.97;;
45564;SDS011;31280;40.408;17.282;2022-12-07T04:26:46;12.88;;;3.60;;
45564;SDS011;31280;40.408;17.282;2022-12-07T04:29:13;15.15;;;3.38;;
45564;SDS011;31280;40.408;17.282;2022-12-07T04:31:40;12.77;;;3.00;;
45564;SDS011;31280;40.408;17.282;2022-12-07T04:34:06;18.38;;;3.35;;
45564;SDS011;31280;40.408;17.282;2022-12-07T04:36:33;16.42;;;2.90;;
45564;SDS011;31280;40.408;17.282;2022-12-07T04:38:59;13.43;;;3.60;;
45564;SDS011;31280;40.408;17.282;2022-12-07T04:41:25;21.33;;;3.38;;
45564;SDS011;31280;40.408;17.282;2022-12-07T04:44:03;13.60;;;2.95;;
45564;SDS011;31280;40.408;17.282;2022-12-07T04:46:32;16.30;;;3.20;;
45564;SDS011;31280;40.408;17.282;2022-12-07T04:48:58;11.98;;;3.00;;
45564;SDS011;31280;40.408;17.282;2022-12-07T04:51:26;15.60;;;3.67;;
45564;SDS011;31280;40.408;17.282;2022-12-07T04:53:54;13.57;;;3.78;;
45564;SDS011;31280;40.408;17.282;2022-12-07T04:56:20;12.55;;;2.38;;
45564;SDS011;31280;40.408;17.282;2022-12-07T04:58:46;11.50;;;3.08;;
45564;SDS011;31280;40.408;17.282;2022-12-07T05:01:14;14.00;;;2.78;;
45564;SDS011;31280;40.408;17.282;2022-12-07T05:03:41;19.15;;;3.53;;
45564;SDS011;31280;40.408;17.282;2022-12-07T05:06:07;9.73;;;3.53;;
45564;SDS011;31280;40.408;17.282;2022-12-07T05:08:34;11.25;;;2.90;;
45564;SDS011;31280;40.408;17.282;2022-12-07T05:11:00;7.57;;;2.90;;
45564;SDS011;31280;40.408;17.282;2022-12-07T05:13:27;11.27;;;3.10;;
45564;SDS011;31280;40.408;17.282;2022-12-07T05:15:53;14.93;;;3.10;;
45564;SDS011;31280;40.408;17.282;2022-12-07T05:18:19;7.03;;;2.55;;
45564;SDS011;31280;40.408;17.282;2022-12-07T05:20:45;9.73;;;3.45;;
45564;SDS011;31280;40.408;17.282;2022-12-07T05:23:11;12.63;;;2.80;;
45564;SDS011;31280;40.408;17.282;2022-12-07T05:25:37;17.98;;;3.80;;
45564;SDS011;31280;40.408;17.282;2022-12-07T05:28:04;19.30;;;3.95;;
45564;SDS011;31280;40.408;17.282;2022-12-07T05:30:30;19.45;;;4.50;;
45564;SDS011;31280;40.408;17.282;2022-12-07T05:32:56;22.10;;;6.25;;
45564;SDS011;31280;40.408;17.282;2022-12-07T05:35:22;26.25;;;5.38;;
45564;SDS011;31280;40.408;17.282;2022-12-07T05:37:48;20.85;;;5.53;;
45564;SDS011;31280;40.408;17.282;2022-12-07T05:40:15;27.65;;;6.30;;
45564;SDS011;31280;40.408;17.282;2022-12-07T05:42:41;18.45;;;5.13;;
45564;SDS011;31280;40.408;17.282;2022-12-07T05:45:08;24.40;;;5.82;;
45564;SDS011;31280;40.408;17.282;2022-12-07T05:47:35;21.25;;;5.75;;
45564;SDS011;31280;40.408;17.282;2022-12-07T05:50:01;28.67;;;6.20;;
45564;SDS011;31280;40.408;17.282;2022-12-07T05:52:27;27.88;;;5.10;;
45564;SDS011;31280;40.408;17.282;2022-12-07T05:54:53;13.38;;;4.57;;
45564;SDS011;31280;40.408;17.282;2022-12-07T05:57:19;21.75;;;4.65;;
45564;SDS011;31280;40.408;17.282;2022-12-07T05:59:47;26.50;;;4.57;;
45564;SDS011;31280;40.408;17.282;2022-12-07T06:02:14;16.52;;;3.72;;
45564;SDS011;31280;40.408;17.282;2022-12-07T06:04:41;19.67;;;4.75;;
45564;SDS011;31280;40.408;17.282;2022-12-07T06:07:09;24.10;;;4.57;;
45564;SDS011;31280;40.408;17.282;2022-12-07T06:09:37;28.08;;;6.05;;
45564;SDS011;31280;40.408;17.282;2022-12-07T06:12:03;24.88;;;5.18;;
45564;SDS011;31280;40.408;17.282;2022-12-07T06:14:48;24.92;;;5.03;;
45564;SDS011;31280;40.408;17.282;2022-12-07T06:17:14;18.05;;;4.50;;
45564;SDS011;31280;40.408;17.282;2022-12-07T06:19:40;21.17;;;4.80;;
45564;SDS011;31280;40.408;17.282;2022-12-07T06:22:06;25.27;;;5.03;;
45564;SDS011;31280;40.408;17.282;2022-12-07T06:24:34;21.35;;;4.63;;
45564;SDS011;31280;40.408;17.282;2022-12-07T06:27:00;21.25;;;4.10;;
45564;SDS011;31280;40.408;17.282;2022-12-07T06:29:26;22.45;;;4.80;;
45564;SDS011;31280;40.408;17.282;2022-12-07T06:31:53;18.88;;;3.58;;
45564;SDS011;31280;40.408;17.282;2022-12-07T06:34:19;12.55;;;4.15;;
45564;SDS011;31280;40.408;17.282;2022-12-07T06:36:48;20.35;;;4.72;;
45564;SDS011;31280;40.408;17.282;2022-12-07T06:39:20;11.20;;;2.95;;
45564;SDS011;31280;40.408;17.282;2022-12-07T06:41:47;10.02;;;3.72;;
45564;SDS011;31280;40.408;17.282;2022-12-07T06:44:15;19.40;;;3.72;;
45564;SDS011;31280;40.408;17.282;2022-12-07T06:46:41;13.00;;;3.53;;
45564;SDS011;31280;40.408;17.282;2022-12-07T06:49:07;13.80;;;3.50;;
45564;SDS011;31280;40.408;17.282;2022-12-07T06:51:33;10.45;;;3.15;;
45564;SDS011;31280;40.408;17.282;2022-12-07T06:54:07;13.30;;;3.83;;
45564;SDS011;31280;40.408;17.282;2022-12-07T06:56:36;13.82;;;3.45;;
45564;SDS011;31280;40.408;17.282;2022-12-07T06:59:03;15.02;;;4.00;;
45564;SDS011;31280;40.408;17.282;2022-12-07T07:01:30;20.25;;;4.25;;
45564;SDS011;31280;40.408;17.282;2022-12-07T07:03:56;19.13;;;3.55;;
45564;SDS011;31280;40.408;17.282;2022-12-07T07:06:22;18.17;;;3.95;;
45564;SDS011;31280;40.408;17.282;2022-12-07T07:08:47;26.90;;;4.85;;
45564;SDS011;31280;40.408;17.282;2022-12-07T07:11:16;15.90;;;3.88;;
45564;SDS011;31280;40.408;17.282;2022-12-07T07:13:42;12.15;;;4.55;;
45564;SDS011;31280;40.408;17.282;2022-12-07T07:16:08;17.63;;;3.70;;
45564;SDS011;31280;40.408;17.282;2022-12-07T07:18:34;12.27;;;4.22;;
45564;SDS011;31280;40.408;17.282;2022-12-07T07:21:00;14.32;;;4.00;;
45564;SDS011;31280;40.408;17.282;2022-12-07T07:23:26;16.40;;;4.05;;
45564;SDS011;31280;40.408;17.282;2022-12-07T07:25:52;14.60;;;3.50;;
45564;SDS011;31280;40.408;17.282;2022-12-07T07:28:18;17.88;;;4.50;;
45564;SDS011;31280;40.408;17.282;2022-12-07T07:30:44;20.70;;;4.72;;
45564;SDS011;31280;40.408;17.282;2022-12-07T07:33:10;28.13;;;5.07;;
45564;SDS011;31280;40.408;17.282;2022-12-07T07:35:37;17.08;;;3.92;;
45564;SDS011;31280;40.408;17.282;2022-12-07T07:38:04;19.38;;;4.10;;
45564;SDS011;31280;40.408;17.282;2022-12-07T07:40:30;14.77;;;4.57;;
45564;SDS011;31280;40.408;17.282;2022-12-07T07:42:56;14.93;;;5.05;;
45564;SDS011;31280;40.408;17.282;2022-12-07T07:45:24;15.20;;;4.22;;
45564;SDS011;31280;40.408;17.282;2022-12-07T07:47:50;24.70;;;5.35;;
45564;SDS011;31280;40.408;17.282;2022-12-07T07:50:17;15.52;;;4.40;;
45564;SDS011;31280;40.408;17.282;2022-12-07T07:52:43;14.52;;;4.53;;
45564;SDS011;31280;40.408;17.282;2022-12-07T07:55:10;15.30;;;4.47;;
45564;SDS011;31280;40.408;17.282;2022-12-07T07:57:36;13.30;;;4.00;;
45564;SDS011;31280;40.408;17.282;2022-12-07T08:00:11;13.23;;;3.63;;
45564;SDS011;31280;40.408;17.282;2022-12-07T08:02:39;15.13;;;3.78;;
45564;SDS011;31280;40.408;17.282;2022-12-07T08:05:05;14.60;;;3.88;;
45564;SDS011;31280;40.408;17.282;2022-12-07T08:07:31;10.15;;;3.20;;
45564;SDS011;31280;40.408;17.282;2022-12-07T08:09:57;18.60;;;4.40;;
45564;SDS011;31280;40.408;17.282;2022-12-07T08:12:23;11.18;;;3.47;;
45564;SDS011;31280;40.408;17.282;2022-12-07T08:14:49;16.90;;;3.67;;
45564;SDS011;31280;40.408;17.282;2022-12-07T08:17:14;15.65;;;4.50;;
45564;SDS011;31280;40.408;17.282;2022-12-07T08:19:40;19.27;;;4.32;;
45564;SDS011;31280;40.408;17.282;2022-12-07T08:22:06;15.70;;;4.45;;
45564;SDS011;31280;40.408;17.282;2022-12-07T08:24:35;12.43;;;4.47;;
45564;SDS011;31280;40.408;17.282;2022-12-07T08:27:01;24.88;;;4.25;;
45564;SDS011;31280;40.408;17.282;2022-12-07T08:29:29;21.17;;;4.53;;
45564;SDS011;31280;40.408;17.282;2022-12-07T08:31:57;20.83;;;5.28;;
45564;SDS011;31280;40.408;17.282;2022-12-07T08:34:26;17.67;;;6.47;;
45564;SDS011;31280;40.408;17.282;2022-12-07T08:36:52;23.45;;;5.20;;
45564;SDS011;31280;40.408;17.282;2022-12-07T08:39:18;17.80;;;5.43;;
45564;SDS011;31280;40.408;17.282;2022-12-07T08:41:46;18.65;;;5.68;;
45564;SDS011;31280;40.408;17.282;2022-12-07T08:44:12;15.00;;;4.82;;
45564;SDS011;31280;40.408;17.282;2022-12-07T08:46:39;31.17;;;4.90;;
45564;SDS011;31280;40.408;17.282;2022-12-07T08:49:17;17.90;;;4.63;;
45564;SDS011;31280;40.408;17.282;2022-12-07T08:51:48;21.65;;;4.85;;
45564;SDS011;31280;40.408;17.282;2022-12-07T08:54:15;17.83;;;4.22;;
45564;SDS011;31280;40.408;17.282;2022-12-07T08:56:43;23.23;;;5.20;;
45564;SDS011;31280;40.408;17.282;2022-12-07T08:59:10;13.73;;;4.32;;
45564;SDS011;31280;40.408;17.282;2022-12-07T09:01:40;18.25;;;5.25;;
45564;SDS011;31280;40.408;17.282;2022-12-07T09:04:05;18.67;;;4.28;;
45564;SDS011;31280;40.408;17.282;2022-12-07T09:06:31;24.70;;;4.65;;
45564;SDS011;31280;40.408;17.282;2022-12-07T09:08:58;25.75;;;5.15;;
45564;SDS011;31280;40.408;17.282;2022-12-07T09:11:26;23.55;;;4.63;;
45564;SDS011;31280;40.408;17.282;2022-12-07T09:13:52;21.00;;;5.15;;
45564;SDS011;31280;40.408;17.282;2022-12-07T09:16:17;27.38;;;5.53;;
45564;SDS011;31280;40.408;17.282;2022-12-07T09:18:43;25.55;;;4.35;;
45564;SDS011;31280;40.408;17.282;2022-12-07T09:21:09;33.45;;;4.75;;
45564;SDS011;31280;40.408;17.282;2022-12-07T09:23:35;22.77;;;4.43;;
45564;SDS011;31280;40.408;17.282;2022-12-07T09:26:03;23.35;;;4.43;;
45564;SDS011;31280;40.408;17.282;2022-12-07T09:28:30;10.45;;;3.28;;
45564;SDS011;31280;40.408;17.282;2022-12-07T09:30:56;17.55;;;4.47;;
45564;SDS011;31280;40.408;17.282;2022-12-07T09:33:22;24.83;;;4.80;;
45564;SDS011;31280;40.408;17.282;2022-12-07T09:35:49;24.42;;;4.65;;
45564;SDS011;31280;40.408;17.282;2022-12-07T09:38:16;23.38;;;5.10;;
45564;SDS011;31280;40.408;17.282;2022-12-07T09:40:43;17.67;;;4.45;;
45564;SDS011;31280;40.408;17.282;2022-12-07T09:43:22;13.38;;;4.65;;
45564;SDS011;31280;40.408;17.282;2022-12-07T09:45:52;16.50;;;4.28;;
45564;SDS011;31280;40.408;17.282;2022-12-07T09:48:29;19.02;;;4.93;;
45564;SDS011;31280;40.408;17.282;2022-12-07T09:50:57;19.17;;;5.45;;
45564;SDS011;31280;40.408;17.282;2022-12-07T09:55:56;16.05;;;4.88;;
45564;SDS011;31280;40.408;17.282;2022-12-07T09:58:23;18.35;;;5.53;;
45564;SDS011;31280;40.408;17.282;2022-12-07T10:01:01;22.23;;;4.38;;
45564;SDS011;31280;40.408;17.282;2022-12-07T10:03:44;18.25;;;4.63;;
45564;SDS011;31280;40.408;17.282;2022-12-07T10:06:20;17.88;;;4.28;;
45564;SDS011;31280;40.408;17.282;2022-12-07T10:08:46;21.25;;;4.60;;
45564;SDS011;31280;40.408;17.282;2022-12-07T10:11:12;17.42;;;5.32;;
45564;SDS011;31280;40.408;17.282;2022-12-07T10:13:47;22.50;;;4.45;;
45564;SDS011;31280;40.408;17.282;2022-12-07T10:18:50;15.27;;;5.03;;
45564;SDS011;31280;40.408;17.282;2022-12-07T10:21:17;16.65;;;4.30;;
45564;SDS011;31280;40.408;17.282;2022-12-07T10:24:05;26.42;;;4.93;;
45564;SDS011;31280;40.408;17.282;2022-12-07T10:29:16;21.77;;;4.38;;
45564;SDS011;31280;40.408;17.282;2022-12-07T10:31:45;17.77;;;5.65;;
45564;SDS011;31280;40.408;17.282;2022-12-07T10:37:17;22.30;;;4.70;;
45564;SDS011;31280;40.408;17.282;2022-12-07T10:39:45;15.88;;;5.00;;
45564;SDS011;31280;40.408;17.282;2022-12-07T10:42:17;24.65;;;4.97;;
45564;SDS011;31280;40.408;17.282;2022-12-07T10:45:03;16.55;;;4.80;;
45564;SDS011;31280;40.408;17.282;2022-12-07T10:53:32;16.00;;;5.18;;
45564;SDS011;31280;40.408;17.282;2022-12-07T11:01:32;13.93;;;5.13;;
45564;SDS011;31280;40.408;17.282;2022-12-07T11:07:06;12.73;;;3.67;;
45564;SDS011;31280;40.408;17.282;2022-12-07T11:14:58;15.93;;;4.57;;
45564;SDS011;31280;40.408;17.282;2022-12-07T11:17:42;16.90;;;4.22;;
45564;SDS011;31280;40.408;17.282;2022-12-07T11:20:29;9.55;;;4.13;;
45564;SDS011;31280;40.408;17.282;2022-12-07T11:25:54;25.00;;;15.20;;
45564;SDS011;31280;40.408;17.282;2022-12-07T11:32:04;24.40;;;9.02;;
45564;SDS011;31280;40.408;17.282;2022-12-07T11:37:34;18.73;;;4.80;;
45564;SDS011;31280;40.408;17.282;2022-12-07T11:42:59;13.55;;;3.85;;
45564;SDS011;31280;40.408;17.282;2022-12-07T11:45:33;14.23;;;4.00;;
45564;SDS011;31280;40.408;17.282;2022-12-07T11:48:01;17.42;;;4.22;;
45564;SDS011;31280;40.408;17.282;2022-12-07T11:53:09;20.17;;;4.10;;
45564;SDS011;31280;40.408;17.282;2022-12-07T11:55:57;11.07;;;3.70;;
45564;SDS011;31280;40.408;17.282;2022-12-07T12:03:58;22.23;;;4.35;;
45564;SDS011;31280;40.408;17.282;2022-12-07T12:06:30;19.10;;;5.18;;
45564;SDS011;31280;40.408;17.282;2022-12-07T12:09:02;17.70;;;4.43;;
45564;SDS011;31280;40.408;17.282;2022-12-07T12:22:30;18.10;;;4.07;;
45564;SDS011;31280;40.408;17.282;2022-12-07T12:25:02;14.52;;;3.53;;
45564;SDS011;31280;40.408;17.282;2022-12-07T12:27:31;17.35;;;4.00;;
45564;SDS011;31280;40.408;17.282;2022-12-07T12:29:59;16.00;;;4.35;;
45564;SDS011;31280;40.408;17.282;2022-12-07T12:32:37;18.60;;;4.43;;
45564;SDS011;31280;40.408;17.282;2022-12-07T12:35:22;18.27;;;3.88;;
45564;SDS011;31280;40.408;17.282;2022-12-07T12:37:54;17.92;;;4.18;;
45564;SDS011;31280;40.408;17.282;2022-12-07T12:42:53;19.25;;;4.25;;
45564;SDS011;31280;40.408;17.282;2022-12-07T12:48:02;17.80;;;4.55;;
45564;SDS011;31280;40.408;17.282;2022-12-07T12:50:30;16.05;;;4.05;;
45564;SDS011;31280;40.408;17.282;2022-12-07T13:00:44;13.82;;;4.47;;
45564;SDS011;31280;40.408;17.282;2022-12-07T13:03:22;13.70;;;4.10;;
45564;SDS011;31280;40.408;17.282;2022-12-07T13:08:44;13.45;;;4.45;;
45564;SDS011;31280;40.408;17.282;2022-12-07T13:11:27;21.17;;;4.07;;
45564;SDS011;31280;40.408;17.282;2022-12-07T13:14:35;16.35;;;4.38;;
45564;SDS011;31280;40.408;17.282;2022-12-07T13:16:58;14.15;;;3.70;;
45564;SDS011;31280;40.408;17.282;2022-12-07T13:25:09;18.58;;;4.07;;
45564;SDS011;31280;40.408;17.282;2022-12-07T13:27:40;17.08;;;5.00;;
45564;SDS011;31280;40.408;17.282;2022-12-07T13:30:17;13.80;;;5.10;;
45564;SDS011;31280;40.408;17.282;2022-12-07T13:32:54;18.00;;;4.45;;
45564;SDS011;31280;40.408;17.282;2022-12-07T13:35:42;15.45;;;4.47;;
45564;SDS011;31280;40.408;17.282;2022-12-07T13:38:21;16.85;;;4.57;;
45564;SDS011;31280;40.408;17.282;2022-12-07T13:46:47;14.68;;;3.92;;
45564;SDS011;31280;40.408;17.282;2022-12-07T13:49:17;14.13;;;3.75;;
45564;SDS011;31280;40.408;17.282;2022-12-07T13:51:43;12.48;;;3.80;;
45564;SDS011;31280;40.408;17.282;2022-12-07T13:54:12;13.70;;;3.50;;
45564;SDS011;31280;40.408;17.282;2022-12-07T13:56:39;20.17;;;4.20;;
45564;SDS011;31280;40.408;17.282;2022-12-07T13:59:07;11.90;;;3.58;;
45564;SDS011;31280;40.408;17.282;2022-12-07T14:01:39;10.05;;;4.30;;
45564;SDS011;31280;40.408;17.282;2022-12-07T14:09:55;18.45;;;4.32;;
45564;SDS011;31280;40.408;17.282;2022-12-07T14:12:25;15.50;;;4.63;;
45564;SDS011;31280;40.408;17.282;2022-12-07T14:14:53;15.98;;;4.43;;
45564;SDS011;31280;40.408;17.282;2022-12-07T14:17:21;14.40;;;4.57;;
45564;SDS011;31280;40.408;17.282;2022-12-07T14:22:23;13.35;;;4.13;;
45564;SDS011;31280;40.408;17.282;2022-12-07T14:25:09;21.00;;;4.68;;
45564;SDS011;31280;40.408;17.282;2022-12-07T14:27:37;15.95;;;4.72;;
45564;SDS011;31280;40.408;17.282;2022-12-07T14:30:04;18.80;;;4.40;;
45564;SDS011;31280;40.408;17.282;2022-12-07T14:32:31;17.38;;;4.30;;
45564;SDS011;31280;40.408;17.282;2022-12-07T14:35:02;26.88;;;4.60;;
45564;SDS011;31280;40.408;17.282;2022-12-07T14:37:39;14.15;;;4.13;;
45564;SDS011;31280;40.408;17.282;2022-12-07T14:40:06;14.95;;;6.22;;
45564;SDS011;31280;40.408;17.282;2022-12-07T14:42:33;16.90;;;5.20;;
45564;SDS011;31280;40.408;17.282;2022-12-07T14:44:59;16.05;;;5.25;;
45564;SDS011;31280;40.408;17.282;2022-12-07T14:47:26;16.77;;;4.13;;
45564;SDS011;31280;40.408;17.282;2022-12-07T14:49:52;17.48;;;10.20;;
45564;SDS011;31280;40.408;17.282;2022-12-07T14:52:22;20.42;;;6.95;;
45564;SDS011;31280;40.408;17.282;2022-12-07T14:54:52;12.25;;;4.88;;
45564;SDS011;31280;40.408;17.282;2022-12-07T14:57:18;15.38;;;5.03;;
45564;SDS011;31280;40.408;17.282;2022-12-07T14:59:44;14.15;;;4.38;;
45564;SDS011;31280;40.408;17.282;2022-12-07T15:02:12;14.63;;;4.63;;
45564;SDS011;31280;40.408;17.282;2022-12-07T15:04:39;15.43;;;4.75;;
45564;SDS011;31280;40.408;17.282;2022-12-07T15:07:08;19.17;;;4.85;;
45564;SDS011;31280;40.408;17.282;2022-12-07T15:09:38;13.73;;;5.55;;
45564;SDS011;31280;40.408;17.282;2022-12-07T15:12:04;13.82;;;6.03;;
45564;SDS011;31280;40.408;17.282;2022-12-07T15:14:30;18.08;;;5.80;;
45564;SDS011;31280;40.408;17.282;2022-12-07T15:16:56;14.77;;;5.72;;
45564;SDS011;31280;40.408;17.282;2022-12-07T15:19:22;14.68;;;6.60;;
45564;SDS011;31280;40.408;17.282;2022-12-07T15:21:51;21.38;;;6.40;;
45564;SDS011;31280;40.408;17.282;2022-12-07T15:24:18;22.40;;;6.20;;
45564;SDS011;31280;40.408;17.282;2022-12-07T15:26:44;21.40;;;6.13;;
45564;SDS011;31280;40.408;17.282;2022-12-07T15:29:11;14.07;;;5.38;;
45564;SDS011;31280;40.408;17.282;2022-12-07T15:31:37;16.52;;;6.07;;
45564;SDS011;31280;40.408;17.282;2022-12-07T15:34:03;14.55;;;6.28;;
45564;SDS011;31280;40.408;17.282;2022-12-07T15:36:30;12.95;;;5.78;;
45564;SDS011;31280;40.408;17.282;2022-12-07T15:38:58;14.85;;;5.50;;
45564;SDS011;31280;40.408;17.282;2022-12-07T15:41:24;12.88;;;6.25;;
45564;SDS011;31280;40.408;17.282;2022-12-07T15:43:49;23.27;;;8.38;;
45564;SDS011;31280;40.408;17.282;2022-12-07T15:46:35;20.58;;;8.38;;
45564;SDS011;31280;40.408;17.282;2022-12-07T15:49:04;19.75;;;7.57;;
45564;SDS011;31280;40.408;17.282;2022-12-07T15:51:34;15.35;;;7.28;;
45564;SDS011;31280;40.408;17.282;2022-12-07T15:53:59;17.13;;;8.05;;
45564;SDS011;31280;40.408;17.282;2022-12-07T15:56:25;22.35;;;8.10;;
45564;SDS011;31280;40.408;17.282;2022-12-07T15:58:51;21.27;;;8.23;;
45564;SDS011;31280;40.408;17.282;2022-12-07T16:01:18;26.33;;;9.45;;
45564;SDS011;31280;40.408;17.282;2022-12-07T16:03:45;31.45;;;8.27;;
45564;SDS011;31280;40.408;17.282;2022-12-07T16:06:15;23.45;;;7.72;;
45564;SDS011;31280;40.408;17.282;2022-12-07T16:08:43;21.05;;;8.25;;
45564;SDS011;31280;40.408;17.282;2022-12-07T16:11:09;18.15;;;7.43;;
45564;SDS011;31280;40.408;17.282;2022-12-07T16:13:35;20.02;;;7.60;;
45564;SDS011;31280;40.408;17.282;2022-12-07T16:16:09;24.77;;;7.70;;
45564;SDS011;31280;40.408;17.282;2022-12-07T16:18:36;21.42;;;7.20;;
45564;SDS011;31280;40.408;17.282;2022-12-07T16:21:03;18.85;;;7.63;;
45564;SDS011;31280;40.408;17.282;2022-12-07T16:23:29;26.90;;;9.40;;
45564;SDS011;31280;40.408;17.282;2022-12-07T16:25:55;20.48;;;8.32;;
45564;SDS011;31280;40.408;17.282;2022-12-07T16:28:29;25.73;;;9.57;;
45564;SDS011;31280;40.408;17.282;2022-12-07T16:31:05;24.15;;;8.95;;
45564;SDS011;31280;40.408;17.282;2022-12-07T16:33:34;22.23;;;9.57;;
45564;SDS011;31280;40.408;17.282;2022-12-07T16:36:01;21.85;;;10.07;;
45564;SDS011;31280;40.408;17.282;2022-12-07T16:38:27;19.20;;;10.32;;